Time;durP1;ratioP1;P1;durP2;ratioP2;P2;SDS_P1;SDS_P2;PMS_P1;PMS_P2;Temp;Humidity;BMP_temperature;BMP_pressure;BME280_temperature;BME280_humidity;BME280_pressure;Samples;Min_cycle;Max_cycle;Signal;HPM_P1;HPM_P2
2023/06/10 00:02:34;;;;;;;13.00;11.70;;;24.80;69.80;;;;;;4637093;56;21310;-36
2023/06/10 00:07:38;;;;;;;13.45;12.20;;;24.80;69.80;;;;;;4615210;55;21603;-38
2023/06/10 00:12:40;;;;;;;13.10;11.88;;;24.80;69.70;;;;;;4616406;56;21044;-37
2023/06/10 00:17:41;;;;;;;12.32;11.12;;;24.80;69.70;;;;;;4686076;55;21532;-38
2023/06/10 00:22:45;;;;;;;11.90;10.80;;;24.80;69.70;;;;;;4615536;60;21487;-37
2023/06/10 00:27:46;;;;;;;12.88;11.57;;;24.80;69.70;;;;;;4614902;60;21591;-35
2023/06/10 00:32:47;;;;;;;12.90;11.70;;;24.80;69.60;;;;;;4889722;55;21018;-36
2023/06/10 00:37:48;;;;;;;13.52;12.23;;;24.80;69.70;;;;;;4636237;55;21141;-35
2023/06/10 00:42:48;;;;;;;12.80;11.50;;;24.80;69.60;;;;;;4646964;55;21089;-36
2023/06/10 00:47:50;;;;;;;12.98;11.68;;;24.70;69.50;;;;;;4708966;55;21028;-36
2023/06/10 00:52:52;;;;;;;13.00;11.68;;;24.80;69.60;;;;;;4655210;56;21113;-35
2023/06/10 00:57:53;;;;;;;13.05;11.75;;;24.80;69.60;;;;;;4633975;56;21057;-38
2023/06/10 01:02:54;;;;;;;12.63;11.43;;;24.80;69.50;;;;;;4681287;55;21554;-37
2023/06/10 01:08:25;;;;;;;12.60;11.43;;;24.70;69.50;;;;;;4614895;60;21523;-36
2023/06/10 01:13:32;;;;;;;12.55;11.35;;;24.80;69.50;;;;;;4776592;56;21547;-35
2023/06/10 01:18:33;;;;;;;;;;;24.80;69.50;;;;;;4710746;56;21188;-35
2023/06/10 01:23:33;;;;;;;13.02;11.75;;;24.70;69.50;;;;;;4677628;55;20127;-38
2023/06/10 01:28:59;;;;;;;12.48;11.20;;;24.80;69.50;;;;;;4614874;60;21077;-38
2023/06/10 01:34:02;;;;;;;13.23;11.93;;;24.80;69.50;;;;;;4802619;56;21001;-36
2023/06/10 01:39:04;;;;;;;12.48;11.27;;;24.80;69.50;;;;;;4713996;56;21495;-35
2023/06/10 01:44:05;;;;;;;11.77;10.63;;;24.80;69.40;;;;;;4792867;56;21093;-38
2023/06/10 01:49:06;;;;;;;12.60;11.30;;;24.80;69.50;;;;;;4952766;55;21081;-36
2023/06/10 01:54:07;;;;;;;12.45;10.98;;;24.70;69.40;;;;;;4702731;55;21575;-37
2023/06/10 01:59:08;;;;;;;11.85;10.68;;;24.70;69.30;;;;;;4783401;55;21017;-37
2023/06/10 02:04:09;;;;;;;11.88;10.70;;;24.70;69.30;;;;;;4783350;55;21041;-38
2023/06/10 02:09:10;;;;;;;12.43;11.12;;;24.70;69.20;;;;;;4647267;55;21033;-36
2023/06/10 02:14:11;;;;;;;12.40;11.20;;;24.70;69.20;;;;;;4615295;59;21009;-36
2023/06/10 02:19:12;;;;;;;11.95;10.75;;;24.70;69.20;;;;;;4649140;55;21475;-36
2023/06/10 02:24:13;;;;;;;12.05;10.85;;;24.70;69.20;;;;;;4725307;56;21535;-36
2023/06/10 02:29:14;;;;;;;11.55;10.27;;;24.70;69.10;;;;;;4636761;56;21018;-36
2023/06/10 02:34:15;;;;;;;12.55;11.23;;;24.70;69.10;;;;;;4863120;55;21073;-38
2023/06/10 02:39:16;;;;;;;10.85;9.75;;;24.70;69.10;;;;;;4713090;55;21491;-35
2023/06/10 02:44:18;;;;;;;11.18;10.00;;;24.70;69.00;;;;;;4728589;56;21110;-34
2023/06/10 02:49:19;;;;;;;11.70;9.90;;;24.70;69.10;;;;;;4615863;59;21169;-38
2023/06/10 02:54:20;;;;;;;11.27;10.18;;;24.70;68.90;;;;;;4700496;56;21085;-37
2023/06/10 02:59:22;;;;;;;11.27;10.27;;;24.70;69.00;;;;;;4654791;56;21037;-36
2023/06/10 03:04:25;;;;;;;11.20;10.10;;;24.70;68.90;;;;;;4698432;56;21016;-39
2023/06/10 03:09:26;;;;;;;11.25;9.90;;;24.70;68.90;;;;;;4658815;55;21088;-36
2023/06/10 03:14:27;;;;;;;10.98;9.98;;;24.70;68.90;;;;;;4646598;56;21554;-36
2023/06/10 03:19:28;;;;;;;11.35;10.25;;;24.70;68.90;;;;;;4692083;56;21085;-36
2023/06/10 03:24:29;;;;;;;11.30;10.20;;;24.70;68.90;;;;;;4640529;55;21104;-38
2023/06/10 03:29:29;;;;;;;11.40;10.30;;;24.70;69.70;;;;;;4615565;56;21077;-36
2023/06/10 03:34:30;;;;;;;10.93;9.88;;;24.70;68.90;;;;;;4706858;55;21092;-35
2023/06/10 03:39:32;;;;;;;12.25;11.05;;;24.70;68.70;;;;;;4615661;60;21571;-38
2023/06/10 03:44:33;;;;;;;11.35;10.20;;;24.70;68.60;;;;;;4731190;56;21151;-36
2023/06/10 03:49:36;;;;;;;10.05;9.13;;;24.70;68.50;;;;;;4615756;60;21555;-36
2023/06/10 03:54:37;;;;;;;10.43;9.43;;;24.70;68.50;;;;;;4655841;56;21475;-37
2023/06/10 03:59:38;;;;;;;11.63;10.43;;;24.60;68.50;;;;;;4615647;56;21108;-31
2023/06/10 04:04:38;;;;;;;10.70;9.68;;;24.70;68.60;;;;;;4615417;55;21021;-35
2023/06/10 04:09:39;;;;;;;10.65;9.65;;;24.70;68.30;;;;;;4656951;56;21089;-37
2023/06/10 04:14:40;;;;;;;12.30;9.70;;;24.70;68.30;;;;;;4816259;56;21093;-38
2023/06/10 04:19:41;;;;;;;10.93;9.82;;;24.70;68.20;;;;;;4631207;56;21036;-38
2023/06/10 04:24:42;;;;;;;10.45;9.45;;;24.60;68.10;;;;;;4614963;60;21093;-37
2023/06/10 04:29:43;;;;;;;12.80;10.02;;;24.70;68.20;;;;;;4641962;56;21563;-39
2023/06/10 04:34:44;;;;;;;11.73;10.52;;;24.70;68.10;;;;;;4808268;55;21077;-36
2023/06/10 04:39:45;;;;;;;11.75;10.02;;;24.60;68.10;;;;;;4615311;59;21464;-36
2023/06/10 04:44:46;;;;;;;10.73;9.60;;;24.70;68.00;;;;;;4651308;55;21125;-35
2023/06/10 04:49:47;;;;;;;10.63;9.63;;;24.60;67.90;;;;;;4714163;56;21658;-38
2023/06/10 04:54:48;;;;;;;11.25;10.15;;;24.60;67.90;;;;;;4653829;56;20998;-38
2023/06/10 04:59:49;;;;;;;10.30;9.20;;;24.60;67.90;;;;;;4619630;55;21483;-36
2023/06/10 05:04:50;;;;;;;10.77;9.65;;;24.60;67.90;;;;;;4617896;56;21009;-35
2023/06/10 05:09:51;;;;;;;10.50;9.48;;;24.60;67.80;;;;;;4654413;56;21021;-36
2023/06/10 05:14:52;;;;;;;10.55;9.43;;;24.60;67.90;;;;;;4637460;56;21488;-35
2023/06/10 05:19:53;;;;;;;9.63;8.70;;;24.60;67.70;;;;;;4619915;56;21029;-37
2023/06/10 05:24:53;;;;;;;10.10;9.18;;;24.60;67.80;;;;;;4615624;57;21476;-38
2023/06/10 05:29:54;;;;;;;11.73;9.88;;;24.60;67.70;;;;;;4644324;56;21084;-38
2023/06/10 05:34:55;;;;;;;10.65;9.65;;;24.60;68.30;;;;;;4616840;56;21021;-38
2023/06/10 05:39:56;;;;;;;10.98;9.73;;;24.60;67.70;;;;;;4635558;56;21033;-36
2023/06/10 05:44:57;;;;;;;10.80;9.80;;;24.60;67.70;;;;;;4614839;56;21579;-37
2023/06/10 05:49:58;;;;;;;11.00;9.75;;;24.60;67.60;;;;;;4615283;60;21065;-36
2023/06/10 05:54:59;;;;;;;11.57;10.13;;;24.60;67.60;;;;;;4734317;56;21495;-37
2023/06/10 06:00:00;;;;;;;11.52;10.43;;;24.60;67.70;;;;;;4615644;60;21531;-36
2023/06/10 06:05:01;;;;;;;11.48;10.30;;;24.60;67.60;;;;;;4625753;56;21045;-37
2023/06/10 06:10:02;;;;;;;11.30;10.23;;;24.60;67.60;;;;;;4685706;55;21563;-37
2023/06/10 06:15:04;;;;;;;12.02;10.52;;;24.60;68.20;;;;;;4651228;56;21002;-35
2023/06/10 06:20:06;;;;;;;9.75;8.75;;;24.60;67.50;;;;;;4638796;56;21017;-34
2023/06/10 06:25:07;;;;;;;11.77;10.10;;;24.60;67.50;;;;;;4615184;56;21092;-39
2023/06/10 06:30:09;;;;;;;10.65;9.55;;;24.60;67.60;;;;;;4632221;55;21551;-36
2023/06/10 06:35:10;;;;;;;10.57;9.48;;;24.60;67.60;;;;;;4628853;56;21005;-37
2023/06/10 06:40:11;;;;;;;10.45;9.43;;;24.60;67.70;;;;;;4615737;56;21065;-36
2023/06/10 06:45:12;;;;;;;11.00;9.93;;;24.70;67.60;;;;;;4616725;56;21043;-37
2023/06/10 06:50:13;;;;;;;10.73;9.63;;;24.70;67.60;;;;;;4615661;60;21435;-36
2023/06/10 06:55:14;;;;;;;11.00;9.80;;;24.70;67.50;;;;;;4616052;60;21029;-36
2023/06/10 07:00:16;;;;;;;10.68;9.57;;;24.70;67.40;;;;;;4624520;56;21073;-34
2023/06/10 07:05:16;;;;;;;11.40;10.00;;;24.70;67.60;;;;;;4645602;56;21493;-37
2023/06/10 07:10:17;;;;;;;13.05;10.15;;;24.70;67.60;;;;;;4632148;55;21554;-36
2023/06/10 07:15:18;;;;;;;11.57;10.38;;;24.70;67.60;;;;;;4688986;55;21025;-36
2023/06/10 07:20:19;;;;;;;11.88;10.65;;;24.70;67.60;;;;;;4616943;55;21980;-37
2023/06/10 07:25:20;;;;;;;12.13;10.85;;;24.70;67.70;;;;;;4631566;55;21045;-35
2023/06/10 07:30:21;;;;;;;11.73;10.00;;;24.60;67.60;;;;;;4615312;60;21016;-37
2023/06/10 07:35:22;;;;;;;12.90;11.05;;;24.60;68.10;;;;;;4729228;55;21579;-37
2023/06/10 07:40:23;;;;;;;12.68;11.38;;;24.70;67.70;;;;;;4692694;55;21097;-37
2023/06/10 07:45:25;;;;;;;13.30;10.90;;;24.70;67.70;;;;;;4620617;56;21110;-40
2023/06/10 07:50:25;;;;;;;12.35;11.05;;;24.70;67.70;;;;;;4617953;55;21319;-36
2023/06/10 07:55:26;;;;;;;12.15;10.45;;;24.70;67.70;;;;;;4636762;55;21123;-38
2023/06/10 08:00:27;;;;;;;12.00;10.70;;;24.70;67.70;;;;;;4672000;55;21013;-38
2023/06/10 08:05:29;;;;;;;11.70;10.48;;;24.70;67.70;;;;;;4626741;55;21060;-37
2023/06/10 08:10:30;;;;;;;12.13;10.82;;;24.70;67.70;;;;;;4617584;56;21096;-39
2023/06/10 08:15:31;;;;;;;12.25;10.52;;;24.70;67.70;;;;;;4852813;55;21564;-34
2023/06/10 08:20:32;;;;;;;12.77;11.48;;;24.70;67.70;;;;;;4683013;55;21069;-37
2023/06/10 08:25:33;;;;;;;11.88;10.60;;;24.70;67.70;;;;;;4617500;55;21472;-36
2023/06/10 08:30:34;;;;;;;13.02;10.48;;;24.70;67.70;;;;;;4650086;55;21479;-34
2023/06/10 08:35:35;;;;;;;11.90;10.70;;;24.70;67.80;;;;;;4632530;55;21686;-35
2023/06/10 08:40:36;;;;;;;12.10;10.88;;;24.70;67.80;;;;;;4666981;55;21076;-34
2023/06/10 08:45:37;;;;;;;10.93;9.93;;;24.70;67.80;;;;;;4621568;56;21129;-37
2023/06/10 08:50:38;;;;;;;11.52;10.43;;;24.70;67.80;;;;;;4625146;56;21611;-37
2023/06/10 08:55:44;;;;;;;13.43;10.45;;;24.70;67.90;;;;;;4615000;60;21535;-37
2023/06/10 09:00:46;;;;;;;11.35;10.25;;;24.70;67.90;;;;;;4615962;58;21378;-36
2023/06/10 09:05:48;;;;;;;12.15;10.85;;;24.70;67.90;;;;;;4749314;56;21477;-36
2023/06/10 09:10:49;;;;;;;11.82;10.63;;;24.70;67.90;;;;;;4622746;56;21069;-37
2023/06/10 09:15:51;;;;;;;12.65;10.73;;;24.80;67.90;;;;;;4633713;55;22309;-37
2023/06/10 09:20:52;;;;;;;12.07;10.82;;;24.70;67.90;;;;;;4616294;55;21886;-36
2023/06/10 09:25:57;;;;;;;11.45;10.35;;;24.70;67.90;;;;;;4615046;59;21438;-35
2023/06/10 09:31:05;;;;;;;11.70;10.50;;;24.80;68.00;;;;;;4615823;60;21509;-36
2023/06/10 09:36:09;;;;;;;11.23;9.98;;;24.80;68.00;;;;;;4632817;56;21032;-35
2023/06/10 09:41:10;;;;;;;11.82;10.63;;;24.70;67.90;;;;;;4615202;60;21142;-36
2023/06/10 09:46:16;;;;;;;12.15;10.95;;;24.80;68.00;;;;;;4614593;60;21536;-36
2023/06/10 09:51:17;;;;;;;11.52;10.35;;;24.80;68.10;;;;;;4716993;56;21531;-37
2023/06/10 09:56:18;;;;;;;11.10;10.00;;;24.80;68.00;;;;;;4674447;55;21096;-40
2023/06/10 10:01:20;;;;;;;11.55;10.35;;;24.80;68.00;;;;;;4626852;56;21567;-37
2023/06/10 10:06:21;;;;;;;11.82;10.63;;;24.80;68.10;;;;;;4660459;55;21654;-37
2023/06/10 10:11:23;;;;;;;10.95;9.90;;;24.80;68.00;;;;;;4780016;56;21081;-40
2023/06/10 10:16:32;;;;;;;11.82;10.73;;;24.80;68.10;;;;;;4615271;60;21033;-35
2023/06/10 10:21:41;;;;;;;12.07;10.88;;;24.80;68.10;;;;;;4732618;56;21013;-37
2023/06/10 10:26:43;;;;;;;10.55;9.48;;;24.80;68.20;;;;;;4615181;60;21064;-36
2023/06/10 10:31:44;;;;;;;11.48;10.38;;;24.80;68.20;;;;;;4649747;56;21085;-34
2023/06/10 10:36:46;;;;;;;11.05;9.98;;;24.80;68.20;;;;;;4615258;60;21013;-37
2023/06/10 10:41:48;;;;;;;11.85;10.65;;;24.80;68.20;;;;;;4647631;56;21150;-33
2023/06/10 10:46:50;;;;;;;12.32;11.10;;;24.80;68.20;;;;;;4614366;60;21168;-35
2023/06/10 10:51:58;;;;;;;10.88;9.88;;;24.80;68.20;;;;;;4698897;56;21575;-34
2023/06/10 10:57:23;;;;;;;12.27;11.07;;;24.80;68.30;;;;;;4615333;56;21017;-34
2023/06/10 11:02:45;;;;;;;11.90;10.75;;;24.80;68.20;;;;;;4698824;56;21074;-37
2023/06/10 11:07:56;;;;;;;12.20;11.00;;;24.80;68.30;;;;;;4721980;56;21523;-37
2023/06/10 11:12:57;;;;;;;13.00;11.70;;;24.80;68.30;;;;;;4630378;55;21107;-35
2023/06/10 11:18:26;;;;;;;12.98;11.73;;;24.80;68.30;;;;;;4683353;56;21029;-36
2023/06/10 11:23:50;;;;;;;13.45;11.70;;;24.80;68.20;;;;;;4716917;56;21014;-39
2023/06/10 11:29:10;;;;;;;14.80;12.18;;;24.80;68.20;;;;;;4894896;56;22025;-34
2023/06/10 11:34:12;;;;;;;12.73;11.52;;;24.80;68.30;;;;;;4625020;56;21487;-38
2023/06/10 11:39:13;;;;;;;12.98;11.52;;;24.80;68.30;;;;;;4659638;56;21013;-38
2023/06/10 11:44:14;;;;;;;13.32;12.02;;;24.80;68.40;;;;;;4615064;60;21106;-35
2023/06/10 11:49:15;;;;;;;14.55;13.10;;;24.80;68.40;;;;;;4613986;59;21152;-35
2023/06/10 11:54:16;;;;;;;13.80;12.40;;;24.80;68.40;;;;;;4635851;55;21017;-37
2023/06/10 11:59:18;;;;;;;13.77;12.32;;;24.80;68.40;;;;;;4812753;56;21532;-34
2023/06/10 12:04:18;;;;;;;13.52;12.15;;;24.80;68.40;;;;;;4614839;60;21020;-37
2023/06/10 12:09:27;;;;;;;15.68;14.02;;;24.80;68.40;;;;;;4646218;55;21552;-36
2023/06/10 12:14:57;;;;;;;14.85;13.25;;;24.80;68.40;;;;;;4645009;56;21084;-35
2023/06/10 12:19:59;;;;;;;15.15;13.55;;;24.80;68.50;;;;;;4650537;56;21573;-37
2023/06/10 12:25:03;;;;;;;13.88;12.37;;;24.80;68.50;;;;;;4649630;56;21610;-35
2023/06/10 12:30:06;;;;;;;14.43;12.77;;;24.80;68.50;;;;;;4763744;56;21081;-38
2023/06/10 12:35:08;;;;;;;13.82;12.43;;;24.80;68.50;;;;;;4633724;56;21029;-36
2023/06/10 12:40:10;;;;;;;15.05;13.27;;;24.80;68.50;;;;;;4633040;56;21001;-36
2023/06/10 12:45:12;;;;;;;14.68;13.15;;;24.80;68.60;;;;;;4623565;56;21583;-38
2023/06/10 12:50:13;;;;;;;14.63;12.98;;;24.80;68.60;;;;;;4615649;60;21495;-36
2023/06/10 12:55:14;;;;;;;13.73;12.30;;;24.80;68.50;;;;;;4615713;59;21073;-36
2023/06/10 13:00:16;;;;;;;14.18;12.75;;;24.80;68.60;;;;;;4663119;55;21567;-36
2023/06/10 13:05:18;;;;;;;14.60;13.10;;;24.80;68.60;;;;;;4661374;56;21009;-38
2023/06/10 13:10:20;;;;;;;13.50;11.95;;;24.80;68.60;;;;;;4615463;60;21074;-36
2023/06/10 13:15:21;;;;;;;14.23;12.73;;;24.80;68.60;;;;;;4668655;56;21088;-35
2023/06/10 13:20:22;;;;;;;13.27;11.95;;;24.80;68.60;;;;;;4667179;56;21021;-36
2023/06/10 13:25:24;;;;;;;13.68;11.80;;;24.80;68.60;;;;;;4711911;55;21555;-36
2023/06/10 13:30:26;;;;;;;14.15;12.75;;;24.80;68.60;;;;;;4802032;55;21543;-36
2023/06/10 13:35:27;;;;;;;14.05;12.55;;;24.90;68.70;;;;;;4742115;56;21646;-35
2023/06/10 13:40:28;;;;;;;12.65;11.38;;;24.80;68.70;;;;;;4659016;55;21049;-35
2023/06/10 13:45:28;;;;;;;13.93;12.52;;;24.80;68.70;;;;;;4615254;59;22392;-34
2023/06/10 13:50:29;;;;;;;14.35;12.85;;;24.90;68.80;;;;;;4626617;55;21013;-36
2023/06/10 13:55:30;;;;;;;14.48;12.98;;;24.90;68.80;;;;;;4615233;59;21483;-34
2023/06/10 14:00:31;;;;;;;14.18;12.75;;;24.90;68.80;;;;;;4654298;55;21578;-36
2023/06/10 14:05:33;;;;;;;13.40;12.10;;;24.90;68.80;;;;;;4681085;56;21575;-36
2023/06/10 14:10:34;;;;;;;13.77;12.48;;;24.90;68.80;;;;;;4620661;55;21490;-36
2023/06/10 14:15:35;;;;;;;14.20;12.70;;;24.90;68.80;;;;;;4645275;55;21081;-36
2023/06/10 14:20:36;;;;;;;13.32;12.00;;;24.80;68.80;;;;;;4683258;55;21551;-36
2023/06/10 14:25:37;;;;;;;13.40;12.00;;;24.90;68.90;;;;;;4615179;60;21116;-35
2023/06/10 14:30:38;;;;;;;13.45;12.15;;;24.80;68.80;;;;;;4676846;55;21509;-37
2023/06/10 14:35:39;;;;;;;13.62;11.93;;;24.90;68.90;;;;;;4721504;55;21550;-38
2023/06/10 14:40:40;;;;;;;13.38;12.13;;;24.90;68.90;;;;;;4618435;55;21076;-35
2023/06/10 14:45:41;;;;;;;13.05;11.75;;;24.90;68.90;;;;;;4707008;55;21172;-34
2023/06/10 14:50:45;;;;;;;13.98;12.48;;;24.90;68.90;;;;;;4615614;60;21033;-35
2023/06/10 14:55:46;;;;;;;12.93;11.73;;;24.90;68.90;;;;;;4615963;56;21531;-38
2023/06/10 15:00:46;;;;;;;13.82;12.43;;;24.90;68.90;;;;;;4691545;56;21088;-30
2023/06/10 15:05:49;;;;;;;13.52;12.23;;;24.90;69.00;;;;;;4670843;55;21101;-37
2023/06/10 15:10:50;;;;;;;13.15;11.85;;;24.90;68.90;;;;;;4615356;59;21555;-36
2023/06/10 15:15:52;;;;;;;12.90;11.60;;;24.90;69.00;;;;;;4647708;55;21103;-35
2023/06/10 15:20:53;;;;;;;12.93;11.63;;;24.90;68.90;;;;;;4615415;60;21030;-37
2023/06/10 15:25:53;;;;;;;13.15;11.85;;;24.90;68.90;;;;;;4723220;55;21528;-36
2023/06/10 15:30:54;;;;;;;13.05;11.75;;;24.90;69.00;;;;;;4615446;60;21025;-36
2023/06/10 15:35:55;;;;;;;13.52;12.23;;;24.90;69.10;;;;;;4615317;59;21025;-36
2023/06/10 15:40:56;;;;;;;13.15;11.85;;;24.90;68.90;;;;;;4632547;55;21017;-36
2023/06/10 15:45:57;;;;;;;12.82;11.52;;;24.90;69.00;;;;;;4705346;55;21144;-36
2023/06/10 15:50:57;;;;;;;12.77;11.48;;;24.90;69.10;;;;;;4763819;55;21041;-35
2023/06/10 15:55:58;;;;;;;13.35;12.05;;;24.90;69.00;;;;;;4790401;55;21040;-38
2023/06/10 16:00:59;;;;;;;12.05;10.95;;;24.90;69.00;;;;;;4615692;59;21073;-35
2023/06/10 16:06:00;;;;;;;12.50;11.27;;;24.90;69.00;;;;;;4615417;59;21052;-37
2023/06/10 16:11:01;;;;;;;13.27;11.95;;;24.90;69.00;;;;;;4615333;60;21527;-36
2023/06/10 16:16:02;;;;;;;12.63;11.40;;;24.90;69.60;;;;;;4615588;57;21027;-38
2023/06/10 16:21:03;;;;;;;13.10;11.80;;;24.90;69.00;;;;;;4615554;60;21520;-36
2023/06/10 16:26:04;;;;;;;13.73;12.32;;;24.90;69.00;;;;;;4647501;55;21045;-34
2023/06/10 16:31:05;;;;;;;13.05;11.75;;;24.90;69.00;;;;;;4651352;56;21314;-37
2023/06/10 16:36:06;;;;;;;12.93;11.63;;;24.90;69.00;;;;;;4615407;55;21867;-36
2023/06/10 16:41:07;;;;;;;13.82;12.43;;;24.90;69.00;;;;;;4679916;56;21053;-35
2023/06/10 16:46:08;;;;;;;14.10;12.80;;;24.90;69.00;;;;;;4655544;55;21093;-38
2023/06/10 16:51:08;;;;;;;12.32;11.05;;;24.90;69.00;;;;;;4622769;55;21509;-37
2023/06/10 16:56:09;;;;;;;13.52;12.23;;;24.90;69.00;;;;;;4630751;55;22032;-37
2023/06/10 17:01:10;;;;;;;13.30;12.02;;;24.90;69.00;;;;;;4631328;55;21235;-37
2023/06/10 17:06:11;;;;;;;13.70;12.30;;;24.90;69.00;;;;;;4615433;59;21547;-37
2023/06/10 17:11:12;;;;;;;14.25;12.80;;;24.90;69.10;;;;;;4781075;55;21036;-41
2023/06/10 17:16:12;;;;;;;13.45;12.15;;;24.90;69.10;;;;;;4632255;55;21025;-38
2023/06/10 17:21:13;;;;;;;13.07;11.77;;;24.90;69.10;;;;;;4625080;55;21551;-38
2023/06/10 17:26:14;;;;;;;13.75;12.35;;;24.90;69.10;;;;;;4632363;55;21033;-36
2023/06/10 17:31:15;;;;;;;13.02;11.73;;;24.90;69.10;;;;;;4692626;55;21467;-34
2023/06/10 17:36:17;;;;;;;13.32;11.90;;;24.90;69.10;;;;;;4719737;55;21029;-37
2023/06/10 17:41:18;;;;;;;14.05;12.65;;;24.90;69.20;;;;;;4616728;55;21480;-37
2023/06/10 17:46:19;;;;;;;13.25;11.90;;;24.90;69.10;;;;;;4632620;55;21113;-37
2023/06/10 17:51:20;;;;;;;13.23;11.82;;;24.90;69.10;;;;;;4732737;55;21560;-37
2023/06/10 17:56:20;;;;;;;13.05;11.75;;;24.90;69.20;;;;;;4615914;59;21021;-36
2023/06/10 18:01:21;;;;;;;14.25;12.77;;;24.90;69.20;;;;;;4775849;55;21071;-36
2023/06/10 18:06:22;;;;;;;13.35;12.05;;;24.90;69.20;;;;;;4673077;55;21599;-35
2023/06/10 18:11:23;;;;;;;14.80;12.77;;;24.90;69.20;;;;;;4635225;55;21021;-34
2023/06/10 18:16:26;;;;;;;12.80;11.52;;;24.90;69.30;;;;;;4691806;56;21045;-37
2023/06/10 18:21:27;;;;;;;14.68;13.18;;;24.90;69.30;;;;;;4615761;55;21575;-36
2023/06/10 18:26:28;;;;;;;13.27;11.98;;;24.90;69.30;;;;;;4638479;55;21061;-37
2023/06/10 18:31:29;;;;;;;13.75;12.35;;;24.90;69.30;;;;;;4703036;55;21480;-36
2023/06/10 18:36:30;;;;;;;13.65;12.25;;;24.90;69.30;;;;;;4647264;55;21021;-35
2023/06/10 18:41:30;;;;;;;13.90;12.52;;;24.90;69.40;;;;;;4634046;55;21037;-38
2023/06/10 18:46:31;;;;;;;13.52;12.13;;;24.90;70.00;;;;;;4688103;55;21057;-38
2023/06/10 18:51:32;;;;;;;13.57;12.18;;;24.90;69.40;;;;;;4644093;55;21097;-37
2023/06/10 18:56:33;;;;;;;13.32;11.93;;;24.90;69.40;;;;;;4615305;59;21057;-38
2023/06/10 19:01:34;;;;;;;13.75;12.35;;;24.90;69.40;;;;;;4615766;59;21569;-37
2023/06/10 19:06:37;;;;;;;13.60;12.20;;;24.90;69.40;;;;;;4624742;56;21041;-35
2023/06/10 19:11:38;;;;;;;13.18;11.88;;;24.90;69.40;;;;;;4713854;55;22430;-37
2023/06/10 19:16:39;;;;;;;13.27;11.85;;;24.90;69.40;;;;;;4615717;59;21080;-38
2023/06/10 19:21:40;;;;;;;12.80;11.50;;;24.90;69.50;;;;;;4718402;55;21574;-38
2023/06/10 19:26:41;;;;;;;13.52;12.23;;;24.90;69.50;;;;;;4621056;55;21116;-36
2023/06/10 19:31:42;;;;;;;12.65;11.38;;;24.90;69.50;;;;;;4623945;55;21148;-37
2023/06/10 19:36:42;;;;;;;14.27;12.82;;;24.90;69.50;;;;;;4758467;55;21076;-36
2023/06/10 19:41:43;;;;;;;12.63;11.43;;;24.90;69.50;;;;;;4615303;60;21471;-34
2023/06/10 19:46:47;;;;;;;13.43;11.85;;;24.90;69.50;;;;;;4770549;55;21638;-37
2023/06/10 19:51:49;;;;;;;12.15;11.05;;;24.90;69.50;;;;;;4674085;56;21619;-36
2023/06/10 19:56:50;;;;;;;12.65;10.98;;;24.90;69.50;;;;;;4800451;55;21583;-38
2023/06/10 20:01:51;;;;;;;12.85;11.55;;;24.90;69.50;;;;;;4626455;55;21073;-38
2023/06/10 20:06:52;;;;;;;12.15;10.95;;;24.90;69.50;;;;;;4615592;55;21112;-36
2023/06/10 20:11:53;;;;;;;11.82;10.63;;;24.90;69.50;;;;;;4702363;55;21565;-37
2023/06/10 20:16:54;;;;;;;11.95;10.85;;;24.90;69.60;;;;;;4618883;55;21071;-37
2023/06/10 20:21:54;;;;;;;11.43;10.32;;;24.90;69.50;;;;;;4641721;55;21511;-37
2023/06/10 20:26:55;;;;;;;11.50;10.35;;;24.90;69.50;;;;;;4614707;60;21113;-38
2023/06/10 20:31:56;;;;;;;12.13;10.93;;;24.90;69.50;;;;;;4703199;55;21502;-36
2023/06/10 20:36:57;;;;;;;12.70;11.40;;;24.90;69.50;;;;;;4614988;59;21136;-37
2023/06/10 20:41:58;;;;;;;12.25;11.15;;;24.90;69.50;;;;;;4679851;56;21029;-37
2023/06/10 20:46:59;;;;;;;11.98;10.85;;;24.90;69.60;;;;;;4651526;55;21545;-35
2023/06/10 20:51:59;;;;;;;12.32;10.65;;;24.90;69.50;;;;;;4649616;55;21346;-39
2023/06/10 20:57:00;;;;;;;11.65;10.43;;;24.90;69.60;;;;;;4636603;55;21109;-38
2023/06/10 21:02:04;;;;;;;11.38;10.27;;;24.90;69.50;;;;;;4621252;55;21456;-36
2023/06/10 21:07:05;;;;;;;10.65;9.55;;;24.90;69.50;;;;;;4724814;55;21534;-37
2023/06/10 21:12:07;;;;;;;10.77;9.68;;;24.90;69.50;;;;;;4619336;56;21029;-36
2023/06/10 21:17:07;;;;;;;11.40;10.30;;;24.90;69.50;;;;;;4655047;56;21013;-38
2023/06/10 21:22:08;;;;;;;10.77;9.77;;;24.90;69.50;;;;;;4624066;55;21053;-37
2023/06/10 21:27:10;;;;;;;10.27;9.25;;;24.90;69.50;;;;;;4752469;56;21033;-40
2023/06/10 21:32:11;;;;;;;10.30;9.30;;;24.90;69.50;;;;;;4717406;56;21502;-36
2023/06/10 21:37:12;;;;;;;11.40;10.30;;;24.90;69.60;;;;;;4637261;56;21041;-34
2023/06/10 21:42:13;;;;;;;10.43;9.43;;;24.90;69.50;;;;;;4625553;55;21005;-34
2023/06/10 21:47:14;;;;;;;10.32;9.35;;;24.90;69.60;;;;;;4670986;56;21025;-39
2023/06/10 21:52:15;;;;;;;11.38;10.18;;;24.90;69.60;;;;;;4615389;60;21303;-37
2023/06/10 21:57:15;;;;;;;10.65;9.65;;;24.90;69.60;;;;;;4629849;55;21323;-38
2023/06/10 22:02:17;;;;;;;10.50;9.50;;;24.90;69.60;;;;;;4721908;56;21132;-37
2023/06/10 22:07:18;;;;;;;10.38;9.38;;;24.90;69.60;;;;;;4627755;56;21041;-35
2023/06/10 22:12:19;;;;;;;11.05;9.95;;;24.90;69.70;;;;;;4679921;56;21021;-37
2023/06/10 22:17:20;;;;;;;10.82;9.82;;;24.90;70.10;;;;;;4615341;60;21527;-37
2023/06/10 22:22:21;;;;;;;10.38;9.38;;;24.90;69.70;;;;;;4758726;56;21094;-39
2023/06/10 22:27:22;;;;;;;11.20;10.10;;;24.90;69.60;;;;;;4675716;56;21515;-33
2023/06/10 22:32:23;;;;;;;10.57;9.48;;;24.90;69.70;;;;;;4667375;56;21080;-37
2023/06/10 22:37:24;;;;;;;10.02;9.13;;;24.90;69.70;;;;;;4615439;60;21088;-36
2023/06/10 22:42:24;;;;;;;10.43;9.43;;;24.90;69.70;;;;;;4615494;60;21120;-39
2023/06/10 22:47:25;;;;;;;10.52;9.52;;;24.90;69.70;;;;;;4699497;56;21061;-38
2023/06/10 22:52:26;;;;;;;9.73;8.82;;;24.90;69.70;;;;;;4696997;56;21045;-38
2023/06/10 22:57:27;;;;;;;9.63;8.73;;;24.90;69.70;;;;;;4615671;60;21109;-39
2023/06/10 23:02:28;;;;;;;10.68;9.40;;;24.90;69.80;;;;;;4647207;56;21112;-36
2023/06/10 23:07:28;;;;;;;9.60;8.60;;;24.90;69.70;;;;;;4755064;56;21490;-37
2023/06/10 23:12:29;;;;;;;10.10;9.18;;;24.90;69.80;;;;;;4706219;56;21045;-40
2023/06/10 23:17:30;;;;;;;9.45;8.55;;;24.90;69.80;;;;;;4656058;56;21061;-40
2023/06/10 23:22:31;;;;;;;9.63;8.70;;;24.90;69.70;;;;;;4642112;56;21666;-39
2023/06/10 23:27:32;;;;;;;9.68;8.77;;;24.90;69.80;;;;;;4694574;56;21057;-38
2023/06/10 23:32:33;;;;;;;10.13;9.10;;;24.90;69.80;;;;;;4655667;56;21096;-37
2023/06/10 23:37:34;;;;;;;10.00;9.10;;;24.90;69.70;;;;;;4729450;56;21554;-35
2023/06/10 23:42:35;;;;;;;9.45;8.65;;;24.90;69.80;;;;;;4776156;56;21655;-36
2023/06/10 23:47:37;;;;;;;8.82;8.02;;;24.90;69.80;;;;;;4626744;56;21036;-36
2023/06/10 23:52:38;;;;;;;9.02;8.23;;;24.90;69.80;;;;;;4658356;56;22069;-36
2023/06/10 23:57:39;;;;;;;9.13;8.00;;;24.90;69.80;;;;;;4633838;56;21151;-37
